Time;durP1;ratioP1;P1;durP2;ratioP2;P2;SDS_P1;SDS_P2;PMS_P1;PMS_P2;Temp;Humidity;BMP_temperature;BMP_pressure;BME280_temperature;BME280_humidity;BME280_pressure;Samples;Min_cycle;Max_cycle;Signal;HPM_P1;HPM_P2
2021/03/24 07:11:00;;;;;;;29.27;19.60;;;6.60;96.70;;;;;;5131728;27;20537;-81
2021/03/24 07:14:01;;;;;;;27.98;19.45;;;7.20;95.90;;;;;;5125380;28;20208;-82
2021/03/24 07:16:51;;;;;;;26.50;20.13;;;7.10;96.10;;;;;;5129615;28;20200;-81
2021/03/24 07:19:40;;;;;;;23.35;19.10;;;7.20;95.80;;;;;;5114058;28;20217;-83
2021/03/24 07:22:42;;;;;;;30.73;19.25;;;7.20;95.60;;;;;;5143096;28;20221;-82
2021/03/24 07:25:28;;;;;;;30.80;20.83;;;7.30;95.40;;;;;;5126849;28;20233;-82
2021/03/24 07:28:20;;;;;;;35.00;21.95;;;7.50;95.10;;;;;;5145660;27;20191;-81
2021/03/24 07:31:16;;;;;;;25.60;18.30;;;7.60;95.00;;;;;;5131137;28;20193;-83
2021/03/24 07:34:11;;;;;;;29.13;20.33;;;7.80;94.70;;;;;;5124960;27;20261;-81
2021/03/24 07:37:05;;;;;;;28.08;20.23;;;8.00;94.30;;;;;;5137497;28;20204;-81
2021/03/24 07:39:51;;;;;;;29.02;20.70;;;8.20;93.80;;;;;;5134439;28;20281;-82
2021/03/24 07:42:53;;;;;;;32.05;22.17;;;8.40;93.60;;;;;;5134292;27;20273;-80
2021/03/24 07:45:36;;;;;;;34.08;22.75;;;8.30;93.40;;;;;;5157012;27;20207;-81
2021/03/24 07:48:17;;;;;;;33.40;21.40;;;8.30;93.70;;;;;;5137995;28;20456;-83
2021/03/24 07:50:55;;;;;;;31.13;21.85;;;8.40;93.70;;;;;;5137092;28;20208;-79
2021/03/24 07:53:49;;;;;;;28.88;20.30;;;8.40;93.40;;;;;;5139502;28;20378;-81
2021/03/24 07:56:25;;;;;;;28.98;20.88;;;8.40;93.40;;;;;;5129891;28;20209;-80
2021/03/24 07:59:10;;;;;;;33.58;21.45;;;8.20;93.50;;;;;;5129664;27;20232;-81
2021/03/24 08:01:59;;;;;;;28.85;20.58;;;8.50;93.00;;;;;;5142755;27;20494;-81
2021/03/24 08:04:35;;;;;;;26.55;19.80;;;8.60;92.90;;;;;;5141902;27;20439;-81
2021/03/24 08:07:20;;;;;;;24.33;18.15;;;8.50;92.40;;;;;;5137463;27;20271;-81
2021/03/24 08:10:01;;;;;;;25.83;19.48;;;8.40;93.00;;;;;;5088512;28;20231;-81
2021/03/24 08:12:52;;;;;;;28.85;19.90;;;8.20;93.20;;;;;;5082980;28;20246;-80
2021/03/24 08:15:59;;;;;;;26.73;20.35;;;8.50;92.50;;;;;;5085495;28;20246;-81
2021/03/24 08:18:58;;;;;;;30.70;20.45;;;8.50;92.60;;;;;;5076003;28;20215;-81
2021/03/24 08:21:59;;;;;;;29.15;19.33;;;8.60;92.30;;;;;;5083192;28;20369;-81
2021/03/24 08:24:49;;;;;;;34.50;18.85;;;8.50;92.50;;;;;;5064677;28;20194;-81
2021/03/24 08:27:58;;;;;;;31.17;19.73;;;8.80;92.50;;;;;;5096578;28;20243;-81
2021/03/24 08:30:55;;;;;;;32.92;20.33;;;8.90;91.80;;;;;;5071335;28;20728;-80
2021/03/24 08:33:46;;;;;;;24.00;18.95;;;8.90;91.50;;;;;;5065482;28;20411;-83
2021/03/24 08:36:44;;;;;;;33.03;20.40;;;8.90;91.60;;;;;;5083533;28;20195;-81
2021/03/24 08:39:56;;;;;;;33.10;22.60;;;9.00;91.60;;;;;;5069632;28;20241;-83
2021/03/24 08:43:01;;;;;;;25.38;20.20;;;8.90;91.70;;;;;;5085536;28;20202;-81
2021/03/24 08:45:51;;;;;;;28.10;18.88;;;9.20;91.40;;;;;;5066026;28;20224;-82
2021/03/24 08:49:11;;;;;;;29.65;20.85;;;8.90;91.40;;;;;;5068819;28;20240;-82
2021/03/24 08:52:01;;;;;;;32.63;19.88;;;9.00;91.60;;;;;;5053515;28;20203;-82
2021/03/24 08:54:51;;;;;;;27.75;20.77;;;8.90;91.50;;;;;;5081135;28;20265;-82
2021/03/24 08:57:48;;;;;;;27.48;19.98;;;9.00;91.10;;;;;;5079675;28;20218;-84
2021/03/24 09:00:36;;;;;;;28.13;20.83;;;8.90;91.80;;;;;;5086371;28;20380;-83
2021/03/24 09:03:38;;;;;;;27.45;20.05;;;9.00;91.70;;;;;;5086894;28;20200;-83
2021/03/24 09:06:29;;;;;;;28.05;20.08;;;9.20;91.10;;;;;;5072794;28;20485;-82
2021/03/24 09:08:59;;;;;;;30.67;20.50;;;9.20;90.70;;;;;;5097083;28;20222;-81
2021/03/24 09:11:39;;;;;;;30.90;21.15;;;9.10;91.10;;;;;;5126804;28;20279;-82
2021/03/24 09:14:25;;;;;;;32.30;22.92;;;9.10;91.00;;;;;;5109279;28;20261;-81
2021/03/24 09:17:04;;;;;;;27.10;19.75;;;8.90;91.20;;;;;;5088572;28;20575;-83
2021/03/24 09:20:01;;;;;;;31.55;20.73;;;9.10;91.20;;;;;;5106864;28;20221;-80
2021/03/24 09:22:39;;;;;;;27.13;21.55;;;9.30;90.70;;;;;;5120934;28;20254;-82
2021/03/24 09:25:36;;;;;;;29.73;19.83;;;9.40;90.70;;;;;;5116133;28;20209;-81
2021/03/24 09:28:36;;;;;;;26.80;20.63;;;9.50;90.40;;;;;;5105980;28;20558;-82
2021/03/24 09:31:35;;;;;;;30.77;21.27;;;9.60;90.30;;;;;;5113622;27;20228;-81
2021/03/24 09:34:32;;;;;;;33.30;22.35;;;9.70;89.40;;;;;;5124641;27;20283;-81
2021/03/24 09:37:09;;;;;;;26.23;20.30;;;9.70;89.40;;;;;;5106574;28;20190;-83
2021/03/24 09:39:46;;;;;;;39.53;23.33;;;9.60;89.70;;;;;;5107666;28;20241;-83
2021/03/24 09:42:31;;;;;;;36.85;22.48;;;9.80;90.20;;;;;;5095498;28;20195;-81
2021/03/24 09:45:06;;;;;;;33.25;20.90;;;9.90;89.50;;;;;;5123710;28;20362;-82
2021/03/24 09:48:07;;;;;;;26.20;21.08;;;9.90;88.70;;;;;;5117398;28;20226;-85
2021/03/24 09:50:44;;;;;;;26.48;20.83;;;10.10;88.00;;;;;;5092511;28;20194;-82
2021/03/24 09:53:16;;;;;;;31.70;22.25;;;9.90;88.70;;;;;;5101286;28;20440;-82
2021/03/24 09:55:55;;;;;;;32.30;23.10;;;9.80;88.70;;;;;;5112109;28;20198;-82
2021/03/24 09:58:25;;;;;;;23.02;19.20;;;9.80;89.30;;;;;;5126683;28;20376;-83
2021/03/24 10:01:19;;;;;;;26.83;21.48;;;9.90;88.60;;;;;;5126379;28;20426;-83
2021/03/24 10:04:05;;;;;;;33.67;22.27;;;10.10;88.30;;;;;;5106004;28;20261;-82
2021/03/24 10:06:57;;;;;;;35.28;24.35;;;9.90;89.00;;;;;;5099181;28;20202;-82
2021/03/24 10:09:38;;;;;;;30.52;20.70;;;9.90;89.10;;;;;;5121310;28;20297;-82
2021/03/24 10:12:18;;;;;;;34.70;23.48;;;10.20;87.60;;;;;;5112038;28;20272;-81
2021/03/24 10:15:02;;;;;;;26.13;19.98;;;10.20;87.80;;;;;;5115274;28;20526;-81
2021/03/24 10:17:37;;;;;;;29.80;21.52;;;10.20;86.80;;;;;;5126521;28;20218;-84
2021/03/24 10:20:26;;;;;;;28.77;20.88;;;10.10;87.70;;;;;;5125719;28;20219;-81
2021/03/24 10:23:04;;;;;;;30.40;22.20;;;10.40;87.20;;;;;;5125589;28;20194;-83
2021/03/24 10:25:45;;;;;;;34.42;22.95;;;10.50;86.00;;;;;;5125636;28;20210;-82
2021/03/24 10:28:52;;;;;;;29.50;22.80;;;10.80;85.20;;;;;;5106933;28;20195;-81
2021/03/24 10:31:29;;;;;;;29.20;21.13;;;11.40;83.10;;;;;;5022147;28;20277;-82
2021/03/24 10:34:23;;;;;;;25.48;19.85;;;11.40;83.00;;;;;;5099539;28;20206;-83
2021/03/24 10:37:10;;;;;;;26.50;21.45;;;11.60;81.30;;;;;;5106989;28;20195;-82
2021/03/24 10:39:51;;;;;;;29.38;22.67;;;11.30;81.20;;;;;;5125149;28;20394;-83
2021/03/24 10:42:30;;;;;;;25.00;19.98;;;11.30;81.40;;;;;;5113140;28;20205;-83
2021/03/24 10:45:13;;;;;;;41.70;23.83;;;11.30;80.50;;;;;;5124607;28;20199;-82
2021/03/24 10:48:05;;;;;;;30.90;22.30;;;11.20;82.00;;;;;;5110114;28;20233;-82
2021/03/24 10:50:49;;;;;;;23.98;20.98;;;11.40;80.40;;;;;;5113167;28;20210;-83
2021/03/24 10:53:29;;;;;;;29.45;21.00;;;11.50;79.50;;;;;;5114376;28;20257;-82
2021/03/24 10:56:30;;;;;;;32.97;23.10;;;11.50;79.30;;;;;;5110948;28;20200;-82
2021/03/24 10:59:21;;;;;;;29.92;21.10;;;11.70;78.90;;;;;;5087921;28;20216;-84
2021/03/24 11:02:14;;;;;;;26.52;21.85;;;11.90;78.00;;;;;;5135995;28;20203;-83
2021/03/24 11:05:01;;;;;;;33.80;21.00;;;11.60;78.30;;;;;;5103507;28;20442;-83
2021/03/24 11:07:40;;;;;;;30.77;22.27;;;11.50;78.70;;;;;;5105126;28;20453;-82
2021/03/24 11:10:33;;;;;;;29.52;21.48;;;11.40;78.60;;;;;;5104017;28;20251;-82
2021/03/24 11:13:35;;;;;;;24.55;21.65;;;11.40;78.50;;;;;;5101077;28;20196;-82
2021/03/24 11:16:04;;;;;;;31.10;21.70;;;11.50;78.30;;;;;;5107426;28;20201;-83
2021/03/24 11:18:47;;;;;;;26.48;21.63;;;11.50;77.30;;;;;;5107087;28;20208;-82
2021/03/24 11:21:34;;;;;;;32.65;23.17;;;11.20;77.60;;;;;;5119897;28;20232;-81
2021/03/24 11:24:45;;;;;;;30.38;22.67;;;11.10;77.60;;;;;;5132342;27;20449;-83
2021/03/24 11:27:25;;;;;;;28.27;21.05;;;11.10;79.30;;;;;;5069553;28;20238;-82
2021/03/24 11:30:26;;;;;;;29.10;22.75;;;11.30;78.90;;;;;;5106921;28;20199;-81
2021/03/24 11:33:12;;;;;;;30.60;23.63;;;11.50;78.50;;;;;;5104962;28;20402;-81
2021/03/24 11:35:56;;;;;;;31.08;23.92;;;11.80;78.50;;;;;;5113183;28;20207;-82
2021/03/24 11:38:30;;;;;;;32.40;24.10;;;12.00;77.00;;;;;;5109659;28;20201;-82
2021/03/24 11:41:21;;;;;;;30.65;24.67;;;11.70;74.70;;;;;;5113110;28;20216;-82
2021/03/24 11:43:59;;;;;;;30.48;22.83;;;11.30;76.60;;;;;;5119191;28;20424;-83
2021/03/24 11:46:57;;;;;;;28.05;23.83;;;11.30;77.90;;;;;;5108769;28;20226;-83
2021/03/24 11:49:33;;;;;;;29.27;23.33;;;11.40;78.70;;;;;;5110742;27;20199;-82
2021/03/24 11:52:38;;;;;;;42.33;30.17;;;11.40;76.80;;;;;;5130889;27;20278;-82
2021/03/24 11:55:11;;;;;;;37.42;23.95;;;11.40;76.50;;;;;;5117811;28;20215;-82
2021/03/24 11:58:15;;;;;;;37.55;25.77;;;11.80;77.40;;;;;;5109763;28;20202;-83
2021/03/24 12:00:54;;;;;;;32.00;26.65;;;12.20;74.50;;;;;;5091972;28;20253;-84
2021/03/24 12:03:55;;;;;;;34.22;26.58;;;12.10;73.30;;;;;;5098901;28;20217;-84
2021/03/24 12:06:34;;;;;;;40.38;28.67;;;12.10;73.10;;;;;;5118091;28;20326;-83
2021/03/24 12:09:18;;;;;;;41.65;29.80;;;12.20;74.30;;;;;;5130396;27;20567;-83
2021/03/24 12:11:46;;;;;;;36.67;28.38;;;12.50;72.40;;;;;;5142327;27;20194;-83
2021/03/24 12:14:16;;;;;;;41.10;30.42;;;12.50;70.70;;;;;;5125174;28;20365;-82
2021/03/24 12:16:56;;;;;;;39.22;28.38;;;12.50;72.80;;;;;;5089961;28;20201;-84
2021/03/24 12:19:35;;;;;;;37.25;27.98;;;12.20;72.10;;;;;;5125550;28;20285;-83
2021/03/24 12:22:22;;;;;;;40.78;31.65;;;12.00;73.10;;;;;;5108218;28;20186;-85
2021/03/24 12:25:34;;;;;;;39.35;33.20;;;11.60;74.80;;;;;;5123115;28;20225;-82
2021/03/24 12:28:06;;;;;;;40.97;29.60;;;11.40;77.70;;;;;;5048672;28;20223;-84
2021/03/24 12:31:02;;;;;;;38.17;27.40;;;11.30;76.20;;;;;;5101256;28;20208;-82
2021/03/24 12:33:33;;;;;;;47.92;32.42;;;11.50;75.40;;;;;;5128497;28;20478;-81
2021/03/24 12:36:14;;;;;;;45.13;28.52;;;11.60;78.20;;;;;;5120653;28;20216;-82
2021/03/24 12:39:02;;;;;;;41.58;29.27;;;11.90;74.70;;;;;;5089615;28;20203;-83
2021/03/24 12:41:40;;;;;;;45.03;28.90;;;11.70;76.00;;;;;;5105737;28;20246;-83
2021/03/24 12:44:46;;;;;;;47.58;30.08;;;11.60;77.10;;;;;;5108001;28;20200;-83
2021/03/24 12:47:37;;;;;;;38.90;29.10;;;11.70;76.00;;;;;;5065062;28;20202;-82
2021/03/24 12:50:15;;;;;;;40.13;28.63;;;11.60;76.20;;;;;;5127218;28;20232;-82
2021/03/24 12:52:49;;;;;;;39.30;29.73;;;11.60;77.30;;;;;;5127979;28;20192;-82
2021/03/24 12:55:19;;;;;;;36.58;28.40;;;11.70;76.50;;;;;;5126676;28;20409;-82
2021/03/24 12:58:24;;;;;;;42.90;29.02;;;12.10;76.00;;;;;;5104552;28;20268;-81
2021/03/24 13:01:05;;;;;;;40.08;28.70;;;12.00;74.60;;;;;;5090803;28;20279;-81
2021/03/24 13:04:02;;;;;;;41.13;28.63;;;11.80;75.20;;;;;;5114696;28;20209;-83
2021/03/24 13:06:59;;;;;;;39.58;29.55;;;11.90;76.60;;;;;;5109539;28;20223;-84
2021/03/24 13:09:26;;;;;;;41.45;29.55;;;12.10;74.80;;;;;;5102103;28;20240;-84
2021/03/24 13:12:26;;;;;;;44.75;30.80;;;12.00;75.40;;;;;;5091811;28;20259;-84
2021/03/24 13:15:20;;;;;;;43.15;29.50;;;11.90;74.90;;;;;;5084997;28;20213;-82
2021/03/24 13:18:12;;;;;;;47.60;29.27;;;12.10;74.40;;;;;;5086715;28;20251;-82
2021/03/24 13:20:50;;;;;;;44.15;32.25;;;12.30;73.00;;;;;;5086112;28;20270;-83
2021/03/24 13:23:56;;;;;;;45.40;30.85;;;12.40;73.80;;;;;;5085156;28;20209;-82
2021/03/24 13:26:38;;;;;;;45.00;32.60;;;12.20;73.70;;;;;;5065105;28;20492;-84
2021/03/24 13:29:46;;;;;;;39.42;29.63;;;12.40;72.90;;;;;;5075849;28;20220;-81
2021/03/24 13:32:29;;;;;;;39.63;30.13;;;12.60;72.90;;;;;;5067532;28;20203;-82
2021/03/24 13:35:54;;;;;;;36.72;29.27;;;12.80;71.80;;;;;;5082351;28;20210;-83
2021/03/24 13:38:55;;;;;;;36.63;29.45;;;12.80;71.80;;;;;;5063738;28;20199;-85
2021/03/24 13:41:25;;;;;;;41.28;30.63;;;12.50;70.90;;;;;;5065641;28;20205;-83
2021/03/24 13:44:00;;;;;;;40.88;29.13;;;12.50;72.80;;;;;;5086315;28;20392;-84
2021/03/24 13:46:36;;;;;;;44.35;30.48;;;12.70;72.50;;;;;;5089843;28;20198;-82
2021/03/24 13:49:21;;;;;;;43.67;30.02;;;12.80;70.70;;;;;;5070622;28;20201;-83
2021/03/24 13:51:54;;;;;;;47.58;34.10;;;12.90;71.20;;;;;;5085217;28;20252;-82
2021/03/24 13:54:51;;;;;;;40.30;31.55;;;12.90;69.20;;;;;;5086072;28;20270;-81
2021/03/24 13:57:20;;;;;;;40.58;30.27;;;13.10;68.30;;;;;;5081691;28;20196;-84
2021/03/24 14:00:12;;;;;;;42.67;31.13;;;13.10;68.90;;;;;;5076730;28;20229;-82
2021/03/24 14:03:18;;;;;;;37.90;30.70;;;13.30;68.80;;;;;;5078690;28;20201;-81
2021/03/24 14:05:53;;;;;;;45.20;29.15;;;13.30;68.20;;;;;;5064033;28;20203;-83
2021/03/24 14:08:32;;;;;;;42.10;29.60;;;13.50;68.40;;;;;;5063716;28;20269;-81
2021/03/24 14:11:24;;;;;;;33.38;28.88;;;13.60;68.10;;;;;;5063744;28;20287;-82
2021/03/24 14:14:13;;;;;;;34.80;29.50;;;13.70;65.40;;;;;;5061842;28;20205;-83
2021/03/24 14:16:50;;;;;;;41.08;29.08;;;13.00;68.50;;;;;;5106358;28;20217;-84
2021/03/24 14:19:25;;;;;;;37.05;27.70;;;11.60;69.00;;;;;;5084851;28;20252;-82
2021/03/24 14:21:51;;;;;;;42.30;32.00;;;12.30;70.40;;;;;;5083371;28;20455;-81
2021/03/24 14:24:56;;;;;;;35.33;29.70;;;12.30;70.00;;;;;;5083432;28;20254;-81
2021/03/24 14:27:32;;;;;;;42.60;31.13;;;12.40;70.10;;;;;;5084083;28;20243;-85
2021/03/24 14:30:13;;;;;;;36.00;28.92;;;12.60;70.00;;;;;;5087917;28;20442;-82
2021/03/24 14:33:00;;;;;;;36.22;28.70;;;12.80;69.60;;;;;;5104564;28;20193;-83
2021/03/24 14:35:33;;;;;;;40.90;31.65;;;12.90;68.90;;;;;;5092867;28;20214;-84
2021/03/24 14:38:32;;;;;;;45.92;29.83;;;13.20;68.00;;;;;;5084571;28;20247;-84
2021/03/24 14:41:13;;;;;;;45.50;31.92;;;13.30;67.90;;;;;;5062333;28;20201;-84
2021/03/24 14:43:53;;;;;;;46.50;30.73;;;13.20;69.20;;;;;;5084911;28;20205;-86
2021/03/24 14:46:38;;;;;;;39.83;30.88;;;13.00;69.10;;;;;;5085550;28;20198;-85
2021/03/24 14:49:06;;;;;;;37.53;28.48;;;13.00;68.80;;;;;;5084685;28;20201;-83
2021/03/24 14:51:37;;;;;;;42.10;31.42;;;13.20;68.80;;;;;;5098436;28;20197;-84
2021/03/24 14:54:33;;;;;;;36.97;30.23;;;13.00;68.20;;;;;;5098021;28;20410;-79
2021/03/24 14:57:32;;;;;;;48.00;31.38;;;13.10;68.80;;;;;;5075929;28;20203;-81
2021/03/24 15:00:33;;;;;;;42.83;31.25;;;13.20;68.50;;;;;;5083613;28;20210;-82
2021/03/24 15:03:25;;;;;;;40.70;30.25;;;13.20;68.70;;;;;;5063955;28;20411;-84
2021/03/24 15:06:00;;;;;;;45.10;29.88;;;13.00;68.80;;;;;;5108399;28;20187;-83
2021/03/24 15:08:41;;;;;;;40.45;29.45;;;12.70;69.50;;;;;;5077202;28;20241;-82
2021/03/24 15:11:22;;;;;;;39.42;32.45;;;12.70;69.60;;;;;;5119487;28;20203;-83
2021/03/24 15:13:51;;;;;;;44.08;32.00;;;12.60;69.90;;;;;;5117758;28;20457;-82
2021/03/24 15:16:42;;;;;;;45.42;32.08;;;12.50;70.60;;;;;;5111317;28;20231;-83
2021/03/24 15:19:28;;;;;;;45.78;32.58;;;12.60;70.30;;;;;;5125294;28;20208;-83
2021/03/24 15:22:19;;;;;;;37.10;31.25;;;12.50;71.00;;;;;;5128352;28;20227;-82
2021/03/24 15:25:09;;;;;;;51.38;34.58;;;12.30;72.40;;;;;;5129475;28;20196;-84
2021/03/24 15:28:10;;;;;;;42.25;31.63;;;12.20;72.20;;;;;;5111713;28;20197;-83
2021/03/24 15:30:49;;;;;;;41.47;31.63;;;12.30;72.70;;;;;;5118940;27;20512;-83
2021/03/24 15:34:11;;;;;;;43.95;31.70;;;12.20;72.50;;;;;;5117561;28;20205;-83
2021/03/24 15:37:06;;;;;;;44.33;29.85;;;12.30;72.60;;;;;;5140789;27;20420;-82
2021/03/24 15:39:59;;;;;;;49.25;29.80;;;12.40;71.90;;;;;;5119351;28;20231;-82
2021/03/24 15:42:38;;;;;;;44.75;33.33;;;12.20;72.90;;;;;;5121275;28;20204;-84
2021/03/24 15:45:09;;;;;;;51.03;29.45;;;12.00;75.30;;;;;;5095627;28;21219;-82
2021/03/24 15:47:43;;;;;;;45.47;31.65;;;11.90;76.10;;;;;;5120362;28;20232;-83
2021/03/24 15:50:16;;;;;;;46.90;32.90;;;11.70;75.20;;;;;;5128089;27;20278;-82
2021/03/24 15:52:49;;;;;;;44.80;33.88;;;11.90;73.80;;;;;;5118380;28;20237;-82
2021/03/24 15:55:24;;;;;;;44.20;31.48;;;11.80;74.20;;;;;;5106489;28;20212;-83
2021/03/24 15:58:25;;;;;;;43.28;32.20;;;11.90;74.60;;;;;;5110815;28;20208;-82
2021/03/24 16:01:13;;;;;;;45.38;30.88;;;11.80;75.60;;;;;;5108466;28;20390;-82
2021/03/24 16:04:03;;;;;;;47.05;33.63;;;11.70;74.90;;;;;;5125167;28;20260;-82
2021/03/24 16:07:09;;;;;;;40.50;31.38;;;11.50;75.20;;;;;;5122677;27;20276;-83
2021/03/24 16:09:54;;;;;;;45.30;31.50;;;11.40;76.30;;;;;;5085824;27;20251;-82
2021/03/24 16:12:52;;;;;;;46.00;33.28;;;11.40;75.90;;;;;;5122574;28;20232;-83
2021/03/24 16:15:50;;;;;;;41.38;32.72;;;11.60;75.70;;;;;;5117023;28;20276;-83
2021/03/24 16:18:28;;;;;;;46.83;33.88;;;11.50;75.90;;;;;;5117883;28;20272;-84
2021/03/24 16:21:06;;;;;;;41.65;32.42;;;11.40;76.90;;;;;;5105246;28;20229;-82
2021/03/24 16:24:00;;;;;;;39.10;33.25;;;11.40;76.60;;;;;;5126982;27;20486;-81
2021/03/24 16:26:51;;;;;;;44.80;32.50;;;11.40;76.40;;;;;;5111628;28;20220;-83
2021/03/24 16:29:35;;;;;;;41.92;31.50;;;11.30;76.70;;;;;;5122691;28;20208;-83
2021/03/24 16:32:24;;;;;;;41.58;32.88;;;11.10;77.60;;;;;;5092542;28;20264;-82
2021/03/24 16:35:50;;;;;;;47.60;33.38;;;11.10;77.50;;;;;;5116728;27;20215;-82
2021/03/24 16:38:34;;;;;;;43.15;31.25;;;11.10;78.20;;;;;;5041283;28;20489;-83
2021/03/24 16:41:42;;;;;;;42.92;32.88;;;11.30;77.20;;;;;;5036724;28;20238;-81
2021/03/24 16:44:29;;;;;;;43.10;30.52;;;11.10;77.30;;;;;;5097589;28;20197;-81
2021/03/24 16:47:17;;;;;;;47.38;32.60;;;11.20;77.40;;;;;;5095130;28;20196;-82
2021/03/24 16:50:05;;;;;;;49.38;35.83;;;11.00;77.60;;;;;;5112382;27;20449;-82
2021/03/24 16:53:00;;;;;;;47.38;34.47;;;11.00;78.50;;;;;;5105905;28;20385;-82
2021/03/24 16:55:38;;;;;;;39.92;29.70;;;10.70;80.90;;;;;;5122026;27;20206;-82
2021/03/24 16:58:20;;;;;;;43.80;31.25;;;10.30;81.80;;;;;;5111324;28;20223;-84
2021/03/24 17:01:06;;;;;;;49.38;33.80;;;10.30;83.20;;;;;;5113608;28;20219;-82
2021/03/24 17:04:03;;;;;;;46.75;33.75;;;10.20;83.00;;;;;;5095334;28;20508;-83
2021/03/24 17:06:37;;;;;;;52.40;34.70;;;10.00;84.90;;;;;;5111866;28;20200;-84
2021/03/24 17:09:27;;;;;;;47.97;34.20;;;9.60;85.00;;;;;;5114604;28;21350;-82
2021/03/24 17:12:23;;;;;;;51.03;34.00;;;9.70;85.90;;;;;;5115018;28;20196;-82
2021/03/24 17:15:08;;;;;;;49.75;33.80;;;9.60;85.70;;;;;;5110013;28;20192;-84
2021/03/24 17:17:53;;;;;;;52.25;37.58;;;9.50;86.20;;;;;;5090987;28;20231;-83
2021/03/24 17:20:35;;;;;;;50.25;36.30;;;9.70;86.10;;;;;;5124480;28;20239;-81
2021/03/24 17:23:19;;;;;;;55.30;36.65;;;9.50;86.70;;;;;;5086673;28;20198;-82
2021/03/24 17:25:48;;;;;;;46.75;34.13;;;9.40;87.90;;;;;;5105801;28;20270;-82
2021/03/24 17:28:22;;;;;;;49.45;34.60;;;9.20;88.20;;;;;;5120735;28;20270;-81
2021/03/24 17:31:17;;;;;;;49.58;34.08;;;9.00;88.80;;;;;;5099208;28;20267;-82
2021/03/24 17:34:00;;;;;;;45.33;34.03;;;9.00;89.20;;;;;;5113853;28;20206;-83
2021/03/24 17:36:41;;;;;;;53.10;36.00;;;9.00;89.40;;;;;;5092357;28;20214;-81
2021/03/24 17:39:48;;;;;;;54.45;35.75;;;8.90;89.70;;;;;;5119627;28;20201;-82
2021/03/24 17:42:20;;;;;;;51.63;35.63;;;8.80;89.90;;;;;;5114138;28;20218;-81
2021/03/24 17:45:26;;;;;;;53.38;38.55;;;8.80;90.30;;;;;;5119052;27;20210;-82
2021/03/24 17:48:25;;;;;;;52.60;37.13;;;8.80;90.20;;;;;;5100269;28;20236;-83
2021/03/24 17:51:19;;;;;;;63.20;37.78;;;8.70;90.00;;;;;;5070674;28;20339;-83
2021/03/24 17:54:09;;;;;;;58.92;36.70;;;8.90;90.00;;;;;;5114830;27;20388;-81
2021/03/24 17:56:43;;;;;;;55.78;37.90;;;8.90;90.10;;;;;;5126326;27;20221;-82
2021/03/24 17:59:17;;;;;;;61.53;39.55;;;8.90;90.10;;;;;;5114602;28;20194;-82
2021/03/24 18:01:58;;;;;;;62.67;40.63;;;8.70;90.60;;;;;;5112556;28;20233;-80
2021/03/24 18:04:56;;;;;;;56.15;36.63;;;8.50;91.00;;;;;;5120918;27;20255;-82
2021/03/24 18:07:34;;;;;;;52.53;38.90;;;8.30;91.70;;;;;;5089923;28;20235;-83
2021/03/24 18:10:04;;;;;;;61.20;35.80;;;8.20;92.10;;;;;;5114846;28;20232;-82
2021/03/24 18:12:42;;;;;;;50.72;35.67;;;8.20;92.30;;;;;;5116990;28;20201;-82
2021/03/24 18:15:28;;;;;;;58.22;37.28;;;8.10;92.20;;;;;;5117375;28;20276;-83
2021/03/24 18:18:06;;;;;;;59.28;37.55;;;8.10;92.50;;;;;;5100070;28;20255;-83
2021/03/24 18:20:37;;;;;;;56.95;36.03;;;8.00;92.80;;;;;;5113799;28;20244;-84
2021/03/24 18:23:13;;;;;;;56.83;37.80;;;7.90;92.90;;;;;;5111631;28;20231;-83
2021/03/24 18:25:44;;;;;;;59.10;37.97;;;7.90;93.10;;;;;;5104585;28;20223;-82
2021/03/24 18:28:13;;;;;;;62.78;40.15;;;8.00;93.00;;;;;;5113311;28;20193;-81
2021/03/24 18:31:03;;;;;;;60.78;41.05;;;8.10;92.80;;;;;;5118958;28;20498;-84
2021/03/24 18:33:42;;;;;;;58.80;38.60;;;7.90;93.10;;;;;;5113765;28;20209;-81
2021/03/24 18:36:21;;;;;;;62.20;39.55;;;7.80;93.40;;;;;;5117321;28;20412;-82
2021/03/24 18:38:53;;;;;;;63.90;39.85;;;7.80;93.50;;;;;;5118675;28;20226;-81
2021/03/24 18:41:22;;;;;;;62.78;39.63;;;7.80;93.70;;;;;;5113828;28;20342;-82
2021/03/24 18:43:53;;;;;;;67.03;42.40;;;7.80;93.90;;;;;;5120258;27;20565;-82
2021/03/24 18:46:20;;;;;;;63.92;39.40;;;7.80;93.90;;;;;;5114798;28;20520;-83
2021/03/24 18:48:56;;;;;;;71.15;44.97;;;7.70;94.00;;;;;;5098096;28;20220;-81
2021/03/24 18:51:33;;;;;;;69.35;44.72;;;7.70;94.30;;;;;;5120425;27;20194;-82
2021/03/24 18:54:18;;;;;;;73.60;45.67;;;7.60;94.50;;;;;;5112286;28;20197;-81
2021/03/24 18:56:47;;;;;;;70.05;41.88;;;7.70;94.50;;;;;;5127961;27;20197;-82
2021/03/24 18:59:23;;;;;;;68.78;44.35;;;7.70;94.40;;;;;;5120213;28;20437;-82
2021/03/24 19:01:50;;;;;;;67.95;44.92;;;7.70;94.50;;;;;;5115992;28;20515;-84
2021/03/24 19:04:34;;;;;;;68.03;44.47;;;7.60;94.60;;;;;;5106788;28;20194;-82
2021/03/24 19:07:13;;;;;;;65.88;41.55;;;7.60;94.60;;;;;;5098504;28;20257;-83
2021/03/24 19:09:43;;;;;;;68.43;44.90;;;7.60;94.50;;;;;;5120045;28;20299;-82
2021/03/24 19:12:28;;;;;;;71.03;44.92;;;7.60;94.60;;;;;;5113140;28;20205;-83
2021/03/24 19:14:57;;;;;;;68.93;44.92;;;7.50;94.80;;;;;;5097730;28;20261;-85
2021/03/24 19:17:44;;;;;;;80.65;48.10;;;7.60;94.70;;;;;;5118841;28;20197;-83
2021/03/24 19:20:14;;;;;;;70.93;44.20;;;7.80;94.50;;;;;;5113886;28;20221;-84
2021/03/24 19:22:43;;;;;;;70.00;45.55;;;7.70;94.50;;;;;;5118668;28;20479;-82
2021/03/24 19:25:22;;;;;;;75.25;46.60;;;7.70;94.70;;;;;;5115488;28;20201;-83
2021/03/24 19:27:56;;;;;;;68.72;43.83;;;7.70;94.50;;;;;;5118109;28;20194;-82
2021/03/24 19:30:35;;;;;;;64.47;42.33;;;7.60;94.60;;;;;;5097565;28;20212;-83
2021/03/24 19:33:16;;;;;;;61.20;39.90;;;7.50;94.60;;;;;;5092699;28;20236;-83
2021/03/24 19:35:45;;;;;;;61.17;38.92;;;7.50;94.50;;;;;;5099288;28;20201;-82
2021/03/24 19:38:22;;;;;;;62.92;42.10;;;7.50;94.30;;;;;;5118775;28;20212;-83
2021/03/24 19:41:14;;;;;;;60.90;37.35;;;7.40;94.70;;;;;;5111209;28;20228;-83
2021/03/24 19:43:44;;;;;;;62.13;39.75;;;7.20;95.00;;;;;;5094510;28;20201;-83
2021/03/24 19:46:26;;;;;;;64.93;38.72;;;6.90;95.30;;;;;;5103059;28;20204;-83
2021/03/24 19:49:20;;;;;;;69.30;41.63;;;6.90;95.40;;;;;;5112870;28;20251;-82
2021/03/24 19:52:02;;;;;;;60.85;39.10;;;6.70;95.70;;;;;;5097681;28;20205;-82
2021/03/24 19:54:38;;;;;;;63.75;40.25;;;6.60;96.10;;;;;;5089690;28;20235;-83
2021/03/24 19:57:20;;;;;;;66.72;39.53;;;6.60;96.10;;;;;;5115176;28;20225;-82
2021/03/24 20:00:09;;;;;;;69.85;42.00;;;6.50;96.40;;;;;;5108868;28;20297;-81
2021/03/24 20:02:54;;;;;;;72.18;41.78;;;6.40;96.60;;;;;;5113800;28;20204;-81
2021/03/24 20:05:34;;;;;;;72.70;41.78;;;6.40;96.60;;;;;;5109397;28;20210;-83
2021/03/24 20:08:23;;;;;;;66.43;41.40;;;6.30;96.90;;;;;;5117946;27;20262;-83
2021/03/24 20:10:55;;;;;;;76.30;44.28;;;6.30;96.90;;;;;;5104734;28;20522;-83
2021/03/24 20:13:34;;;;;;;71.38;42.40;;;6.30;96.90;;;;;;5115143;28;20285;-83
2021/03/24 20:16:05;;;;;;;71.88;42.88;;;6.20;97.20;;;;;;5105142;28;20246;-83
2021/03/24 20:18:36;;;;;;;65.25;42.45;;;6.20;97.30;;;;;;5117108;28;20209;-83
2021/03/24 20:21:12;;;;;;;69.30;44.40;;;6.10;97.40;;;;;;5127291;27;20241;-86
2021/03/24 20:23:39;;;;;;;76.00;44.35;;;6.00;97.60;;;;;;5116437;28;20238;-80
2021/03/24 20:26:09;;;;;;;74.13;46.17;;;6.10;97.50;;;;;;5111611;28;20202;-84
2021/03/24 20:28:36;;;;;;;74.25;43.15;;;5.90;97.60;;;;;;5097757;28;20194;-82
2021/03/24 20:31:03;;;;;;;77.63;46.75;;;5.90;97.80;;;;;;5123115;28;20223;-83
2021/03/24 20:33:52;;;;;;;84.00;47.92;;;5.90;97.90;;;;;;5138245;27;20535;-82
2021/03/24 20:36:32;;;;;;;83.05;47.53;;;5.90;97.80;;;;;;5120074;28;20210;-82
2021/03/24 20:39:20;;;;;;;71.68;44.78;;;5.80;97.90;;;;;;5127285;28;20212;-82
2021/03/24 20:42:05;;;;;;;77.13;46.72;;;5.80;98.10;;;;;;5112359;28;20499;-81
2021/03/24 20:44:57;;;;;;;81.72;47.50;;;5.80;97.90;;;;;;5108644;28;20200;-84
2021/03/24 20:47:27;;;;;;;85.13;47.95;;;5.80;97.80;;;;;;5112756;27;20205;-83
2021/03/24 20:49:55;;;;;;;79.63;45.88;;;5.80;97.80;;;;;;5109428;28;20198;-82
2021/03/24 20:52:23;;;;;;;79.30;45.55;;;5.80;97.80;;;;;;5127817;28;20438;-87
2021/03/24 20:54:51;;;;;;;78.45;45.63;;;5.80;97.80;;;;;;5120483;28;20210;-85
2021/03/24 20:57:24;;;;;;;94.97;51.92;;;6.00;97.50;;;;;;5104083;28;20247;-83
2021/03/24 20:59:51;;;;;;;106.07;56.15;;;5.90;97.40;;;;;;5117884;28;20259;-83
2021/03/24 21:02:22;;;;;;;96.90;54.08;;;5.90;97.50;;;;;;5116533;27;20197;-83
2021/03/24 21:04:50;;;;;;;89.20;50.78;;;5.90;97.50;;;;;;5088655;28;20194;-80
2021/03/24 21:07:17;;;;;;;72.90;46.78;;;5.80;97.70;;;;;;5116245;28;20293;-81
2021/03/24 21:09:44;;;;;;;78.47;48.00;;;5.80;97.70;;;;;;5122159;27;20575;-83